createdAt,value
2019-05-17T00:00:17.039Z,81.8
2019-05-17T00:15:30.357Z,82.4
2019-05-17T00:30:37.544Z,82.6
2019-05-17T00:45:58.245Z,82.6
2019-05-17T01:01:12.317Z,82.2
2019-05-17T01:16:27.458Z,82.4
2019-05-17T01:31:40.392Z,82.8
2019-05-17T01:46:52.922Z,82.9
2019-05-17T02:02:08.298Z,83.1
2019-05-17T02:17:22.314Z,83.2
2019-05-17T02:32:36.333Z,83.1
2019-05-17T02:47:44.251Z,83.4
2019-05-17T03:03:04.391Z,83
2019-05-17T03:18:18.257Z,83.8
2019-05-17T03:33:36.688Z,84.2
2019-05-17T03:48:46.285Z,84.7
2019-05-17T04:04:03.370Z,85.5
2019-05-17T04:19:14.476Z,85.7
2019-05-17T04:34:28.472Z,84.1
2019-05-17T04:49:44.396Z,84.1
2019-05-17T05:04:53.688Z,83.8
2019-05-17T05:20:13.750Z,69.5
2019-05-17T05:35:25.813Z,57.2
2019-05-17T05:50:27.999Z,55.1
2019-05-17T06:05:54.999Z,52.4
2019-05-17T06:21:12.387Z,53.5
2019-05-17T06:36:24.624Z,57.1
2019-05-17T06:51:33.602Z,58.5
2019-05-17T07:06:55.021Z,58.1
2019-05-17T07:22:10.655Z,57.7
2019-05-17T07:37:26.589Z,56
2019-05-17T07:52:31.118Z,54.2
2019-05-17T08:08:00.367Z,49.4
2019-05-17T08:23:16.286Z,46.2
2019-05-17T08:38:33.655Z,43.9
2019-05-17T08:53:50.144Z,40.5
2019-05-17T09:09:04.350Z,39.2
2019-05-17T09:24:24.661Z,34.4
2019-05-17T09:39:42.394Z,34.2
2019-05-17T09:55:00.886Z,32.9
2019-05-17T10:10:10.969Z,32.3
2019-05-17T10:25:37.077Z,33.6
2019-05-17T10:40:53.644Z,32.4
2019-05-17T10:56:11.195Z,33.5
2019-05-17T11:11:28.805Z,34
2019-05-17T11:26:41.705Z,33
2019-05-17T11:42:04.514Z,29.8
2019-05-17T11:57:22.740Z,28.9
2019-05-17T12:12:40.830Z,30
2019-05-17T12:27:45.619Z,25.9
2019-05-17T12:43:17.275Z,26.5
2019-05-17T12:58:37.572Z,26
2019-05-17T13:13:56.735Z,24.4
2019-05-17T13:29:16.562Z,21.4
2019-05-17T13:44:22.806Z,20.6
2019-05-17T13:59:55.148Z,20.5
2019-05-17T14:15:19.515Z,19.5
2019-05-17T14:30:41.423Z,17.9
2019-05-17T14:46:03.408Z,18.3
2019-05-17T15:01:25.448Z,18
2019-05-17T15:16:36.195Z,18.9
2019-05-17T15:32:07.784Z,18.5
2019-05-17T15:47:30.218Z,17.5
2019-05-17T16:02:51.108Z,19
2019-05-17T16:18:12.151Z,18.3
2019-05-17T16:33:14.117Z,17.6
2019-05-17T16:48:46.125Z,16.7
2019-05-17T17:04:16.227Z,17.6
2019-05-17T17:19:37.539Z,17.7
2019-05-17T17:34:57.894Z,18.2
2019-05-17T17:50:18.299Z,20.1
2019-05-17T18:05:25.409Z,20.9
2019-05-17T18:20:53.479Z,23.9
2019-05-17T18:36:16.680Z,26.2
2019-05-17T18:51:34.797Z,28
2019-05-17T19:06:52.561Z,29.7
2019-05-17T19:21:54.321Z,31.8
2019-05-17T19:37:24.702Z,34.2
2019-05-17T19:52:43.987Z,36.1
2019-05-17T20:08:00.597Z,37.8
2019-05-17T20:23:17.192Z,39.8
2019-05-17T20:38:22.666Z,41.8
2019-05-17T20:53:49.781Z,43.6
2019-05-17T21:09:05.885Z,46.2
2019-05-17T21:24:22.269Z,48.2
2019-05-17T21:39:37.653Z,51.1
2019-05-17T21:54:48.416Z,52.8
2019-05-17T22:10:08.861Z,54.5
2019-05-17T22:25:24.536Z,58.5
2019-05-17T22:40:39.749Z,60
2019-05-17T22:55:42.803Z,62.3
2019-05-17T23:11:10.423Z,62
2019-05-17T23:26:25.928Z,61.9
2019-05-17T23:41:41.022Z,64
2019-05-17T23:56:56.026Z,65.2
